Time;durP1;ratioP1;P1;durP2;ratioP2;P2;SDS_P1;SDS_P2;PMS_P1;PMS_P2;Temp;Humidity;BMP_temperature;BMP_pressure;BME280_temperature;BME280_humidity;BME280_pressure;Samples;Min_cycle;Max_cycle;Signal;HPM_P1;HPM_P2
2022/03/29 00:01:03;;;;;;;26.80;15.43;;;;;;;;;;5099553;28;20027;-61
2022/03/29 00:03:29;;;;;;;26.42;15.27;;;;;;;;;;5102927;28;20048;-61
2022/03/29 00:05:55;;;;;;;26.30;15.65;;;;;;;;;;5113142;28;20131;-61
2022/03/29 00:08:21;;;;;;;27.40;15.25;;;;;;;;;;5099152;28;20119;-61
2022/03/29 00:10:47;;;;;;;27.95;15.80;;;;;;;;;;5086980;28;20032;-61
2022/03/29 00:13:13;;;;;;;29.02;16.15;;;;;;;;;;5089082;28;20032;-61
2022/03/29 00:15:39;;;;;;;24.70;14.07;;;;;;;;;;5092740;28;20236;-61
2022/03/29 00:18:05;;;;;;;26.42;15.18;;;;;;;;;;5089988;28;20071;-61
2022/03/29 00:20:31;;;;;;;26.83;15.80;;;;;;;;;;5095035;28;20062;-61
2022/03/29 00:22:57;;;;;;;31.40;16.63;;;;;;;;;;5090784;28;20036;-61
2022/03/29 00:25:23;;;;;;;31.65;16.88;;;;;;;;;;5085831;28;20043;-61
2022/03/29 00:27:49;;;;;;;28.40;16.35;;;;;;;;;;5082325;28;20044;-61
2022/03/29 00:30:16;;;;;;;31.20;16.90;;;;;;;;;;5098944;28;20048;-62
2022/03/29 00:32:43;;;;;;;32.50;15.98;;;;;;;;;;5091318;28;20417;-61
2022/03/29 00:35:09;;;;;;;28.58;16.55;;;;;;;;;;5090563;28;20063;-60
2022/03/29 00:37:35;;;;;;;29.10;16.65;;;;;;;;;;5083858;28;20043;-61
2022/03/29 00:40:01;;;;;;;28.58;15.93;;;;;;;;;;5081116;28;20093;-61
2022/03/29 00:42:27;;;;;;;27.85;16.48;;;;;;;;;;5072999;28;20448;-61
2022/03/29 00:44:56;;;;;;;28.38;15.90;;;;;;;;;;5076693;28;20041;-61
2022/03/29 00:47:22;;;;;;;28.10;16.88;;;;;;;;;;5073571;28;20036;-61
2022/03/29 00:49:48;;;;;;;28.08;16.00;;;;;;;;;;5084270;28;20067;-61
2022/03/29 00:52:14;;;;;;;27.77;16.73;;;;;;;;;;5076931;28;20064;-61
2022/03/29 00:54:43;;;;;;;31.08;17.02;;;;;;;;;;5087948;28;20032;-61
2022/03/29 00:57:11;;;;;;;31.38;17.05;;;;;;;;;;5085380;28;20117;-61
2022/03/29 00:59:38;;;;;;;29.33;17.42;;;;;;;;;;5097996;28;20382;-61
2022/03/29 01:02:04;;;;;;;31.75;18.33;;;;;;;;;;5089383;28;20085;-61
2022/03/29 01:04:30;;;;;;;32.22;17.92;;;;;;;;;;5090309;28;20063;-61
2022/03/29 01:06:59;;;;;;;34.88;19.88;;;;;;;;;;5082176;28;20127;-61
2022/03/29 01:09:26;;;;;;;34.97;20.90;;;;;;;;;;5084643;28;20040;-61
2022/03/29 01:11:52;;;;;;;36.50;21.45;;;;;;;;;;5073231;28;20041;-61
2022/03/29 01:14:20;;;;;;;38.13;20.48;;;;;;;;;;5081687;28;20071;-61
2022/03/29 01:19:31;;;;;;;34.00;19.75;;;;;;;;;;5092213;28;20036;-61
2022/03/29 01:22:01;;;;;;;33.28;20.80;;;;;;;;;;5095557;28;20089;-61
2022/03/29 01:24:27;;;;;;;39.40;22.42;;;;;;;;;;5083676;28;20089;-61
2022/03/29 01:26:56;;;;;;;40.97;22.55;;;;;;;;;;5091438;28;20043;-61
2022/03/29 01:29:22;;;;;;;37.28;21.55;;;;;;;;;;5091162;28;21056;-61
2022/03/29 01:31:49;;;;;;;39.03;22.45;;;;;;;;;;5090517;28;20498;-61
2022/03/29 01:34:16;;;;;;;37.70;21.92;;;;;;;;;;5089899;28;20040;-61
2022/03/29 01:36:42;;;;;;;39.28;21.83;;;;;;;;;;5076838;28;20068;-61
2022/03/29 01:39:08;;;;;;;39.00;22.05;;;;;;;;;;5087564;28;20066;-61
2022/03/29 01:41:34;;;;;;;39.35;22.58;;;;;;;;;;5089744;28;20070;-61
2022/03/29 01:44:00;;;;;;;36.47;20.63;;;;;;;;;;5082513;28;20036;-61
2022/03/29 01:46:26;;;;;;;41.03;20.83;;;;;;;;;;5050941;28;20137;-61
2022/03/29 01:48:52;;;;;;;39.55;19.85;;;;;;;;;;5050778;28;20131;-61
2022/03/29 01:51:18;;;;;;;37.67;19.05;;;;;;;;;;5053305;28;20039;-61
2022/03/29 01:53:47;;;;;;;33.97;19.38;;;;;;;;;;5085405;28;20405;-62
2022/03/29 01:56:13;;;;;;;33.25;19.73;;;;;;;;;;5092233;28;20067;-61
2022/03/29 01:58:39;;;;;;;37.40;19.95;;;;;;;;;;5090831;28;20141;-61
2022/03/29 02:01:05;;;;;;;34.88;18.65;;;;;;;;;;5089383;28;20038;-61
2022/03/29 02:03:31;;;;;;;35.00;18.98;;;;;;;;;;5079367;28;20048;-61
2022/03/29 02:05:59;;;;;;;33.85;19.77;;;;;;;;;;5084881;28;20046;-61
2022/03/29 02:08:25;;;;;;;34.53;19.73;;;;;;;;;;5084899;28;20047;-61
2022/03/29 02:10:51;;;;;;;34.10;19.20;;;;;;;;;;5091142;28;20066;-61
2022/03/29 02:13:17;;;;;;;32.97;17.50;;;;;;;;;;5088762;28;20517;-61
2022/03/29 02:15:43;;;;;;;31.50;17.90;;;;;;;;;;5089803;28;20048;-61
2022/03/29 02:18:09;;;;;;;33.92;19.40;;;;;;;;;;5102347;28;20121;-62
2022/03/29 02:20:35;;;;;;;36.40;20.48;;;;;;;;;;5083753;28;20397;-61
2022/03/29 02:23:08;;;;;;;34.10;20.13;;;;;;;;;;5084778;28;20043;-61
2022/03/29 02:25:35;;;;;;;33.03;19.98;;;;;;;;;;5090573;28;20489;-61
2022/03/29 02:28:01;;;;;;;34.47;19.40;;;;;;;;;;5089766;28;20605;-61
2022/03/29 02:30:27;;;;;;;34.78;19.40;;;;;;;;;;5096397;28;20230;-61
2022/03/29 02:32:53;;;;;;;35.25;20.67;;;;;;;;;;5089610;28;20040;-61
2022/03/29 02:35:19;;;;;;;33.72;19.52;;;;;;;;;;5092790;28;20255;-61
2022/03/29 02:37:45;;;;;;;32.83;19.15;;;;;;;;;;5095254;28;20036;-61
2022/03/29 02:40:13;;;;;;;35.22;19.35;;;;;;;;;;5100575;28;20452;-61
2022/03/29 02:42:46;;;;;;;33.90;20.00;;;;;;;;;;5090990;28;20393;-61
2022/03/29 02:45:15;;;;;;;37.72;20.08;;;;;;;;;;5095248;28;20047;-61
2022/03/29 02:47:41;;;;;;;33.10;19.83;;;;;;;;;;5087156;28;20044;-61
2022/03/29 02:50:07;;;;;;;35.80;20.00;;;;;;;;;;5095137;28;20501;-61
2022/03/29 02:52:33;;;;;;;33.97;20.65;;;;;;;;;;5090702;28;20044;-61
2022/03/29 02:54:59;;;;;;;34.03;20.20;;;;;;;;;;5095590;28;20386;-61
2022/03/29 02:57:25;;;;;;;35.13;19.95;;;;;;;;;;5089545;28;20035;-61
2022/03/29 02:59:51;;;;;;;36.83;19.67;;;;;;;;;;5086116;28;20051;-61
2022/03/29 03:02:18;;;;;;;36.97;19.20;;;;;;;;;;5097073;28;20044;-61
2022/03/29 03:04:44;;;;;;;33.65;19.48;;;;;;;;;;5091032;28;20047;-61
2022/03/29 03:07:10;;;;;;;35.63;20.08;;;;;;;;;;5088758;28;20048;-61
2022/03/29 03:09:36;;;;;;;32.97;19.00;;;;;;;;;;5094147;28;20036;-61
2022/03/29 03:12:02;;;;;;;32.47;19.08;;;;;;;;;;5108427;28;20127;-61
2022/03/29 03:14:28;;;;;;;34.42;20.15;;;;;;;;;;5088380;28;20505;-61
2022/03/29 03:16:54;;;;;;;35.10;19.83;;;;;;;;;;5089084;28;20043;-61
2022/03/29 03:19:20;;;;;;;31.73;18.85;;;;;;;;;;5094636;28;20072;-61
2022/03/29 03:21:46;;;;;;;36.72;19.75;;;;;;;;;;5094252;28;20497;-61
2022/03/29 03:24:13;;;;;;;36.65;20.17;;;;;;;;;;5093938;28;20167;-61
2022/03/29 03:26:39;;;;;;;36.13;19.15;;;;;;;;;;5080187;28;20041;-61
2022/03/29 03:29:05;;;;;;;37.90;20.30;;;;;;;;;;5090836;28;20032;-61
2022/03/29 03:31:31;;;;;;;36.83;19.75;;;;;;;;;;5096322;28;20428;-61
2022/03/29 03:33:57;;;;;;;38.28;19.75;;;;;;;;;;5081720;28;20055;-61
2022/03/29 03:36:23;;;;;;;34.72;19.90;;;;;;;;;;5080682;28;20046;-61
2022/03/29 03:38:49;;;;;;;36.60;19.95;;;;;;;;;;5099412;28;20040;-61
2022/03/29 03:41:15;;;;;;;37.72;18.83;;;;;;;;;;5089866;28;20033;-61
2022/03/29 03:43:41;;;;;;;33.42;19.60;;;;;;;;;;5096240;28;20043;-61
2022/03/29 03:46:07;;;;;;;34.33;19.45;;;;;;;;;;5099189;28;20040;-61
2022/03/29 03:48:34;;;;;;;33.08;19.23;;;;;;;;;;5094189;28;20036;-61
2022/03/29 03:51:01;;;;;;;36.08;19.73;;;;;;;;;;5092860;28;20435;-61
2022/03/29 03:53:27;;;;;;;35.58;19.40;;;;;;;;;;5088725;28;20040;-61
2022/03/29 03:55:53;;;;;;;37.15;20.08;;;;;;;;;;5085897;28;20048;-61
2022/03/29 03:58:19;;;;;;;33.95;19.92;;;;;;;;;;5090328;28;20044;-61
2022/03/29 04:00:45;;;;;;;36.25;19.65;;;;;;;;;;5083423;28;20047;-61
2022/03/29 04:03:11;;;;;;;36.25;19.27;;;;;;;;;;5092049;28;20546;-61
2022/03/29 04:05:38;;;;;;;35.45;19.77;;;;;;;;;;5088210;28;20039;-61
2022/03/29 04:08:04;;;;;;;36.95;18.77;;;;;;;;;;5089961;28;20048;-61
2022/03/29 04:10:31;;;;;;;32.55;19.23;;;;;;;;;;5089725;28;20048;-61
2022/03/29 04:12:57;;;;;;;34.15;19.20;;;;;;;;;;5088853;28;20037;-61
2022/03/29 04:15:22;;;;;;;36.20;19.77;;;;;;;;;;5081751;28;20063;-61
2022/03/29 04:17:48;;;;;;;33.22;18.95;;;;;;;;;;5090726;28;20028;-61
2022/03/29 04:20:14;;;;;;;38.53;19.45;;;;;;;;;;5091164;28;20458;-61
2022/03/29 04:22:40;;;;;;;35.35;19.35;;;;;;;;;;5091422;28;20035;-61
2022/03/29 04:25:07;;;;;;;34.70;19.02;;;;;;;;;;5089974;28;20108;-61
2022/03/29 04:27:33;;;;;;;35.17;19.15;;;;;;;;;;5086125;28;20039;-61
2022/03/29 04:29:59;;;;;;;35.83;19.75;;;;;;;;;;5089401;28;20405;-61
2022/03/29 04:32:25;;;;;;;33.78;18.77;;;;;;;;;;5092066;28;20063;-61
2022/03/29 04:34:51;;;;;;;37.08;19.40;;;;;;;;;;5082282;28;20039;-61
2022/03/29 04:37:17;;;;;;;33.97;19.15;;;;;;;;;;5088954;28;20032;-61
2022/03/29 04:39:43;;;;;;;37.55;19.08;;;;;;;;;;5092814;28;20500;-61
2022/03/29 04:42:09;;;;;;;39.28;19.65;;;;;;;;;;5098929;28;20043;-61
2022/03/29 04:44:35;;;;;;;38.25;19.30;;;;;;;;;;5097458;28;20078;-61
2022/03/29 04:47:01;;;;;;;38.60;19.13;;;;;;;;;;5081794;28;20047;-61
2022/03/29 04:49:27;;;;;;;32.22;18.45;;;;;;;;;;5090783;28;20413;-61
2022/03/29 04:51:53;;;;;;;38.10;20.17;;;;;;;;;;5098253;28;20035;-61
2022/03/29 04:54:19;;;;;;;36.03;18.80;;;;;;;;;;5097777;28;20035;-61
2022/03/29 04:56:45;;;;;;;36.33;19.17;;;;;;;;;;5089025;28;20067;-61
2022/03/29 04:59:11;;;;;;;37.88;19.98;;;;;;;;;;5086352;28;20044;-61
2022/03/29 05:01:39;;;;;;;39.10;18.98;;;;;;;;;;5091140;28;20063;-61
2022/03/29 05:04:05;;;;;;;40.00;20.55;;;;;;;;;;5092810;28;20036;-61
2022/03/29 05:06:31;;;;;;;38.17;20.48;;;;;;;;;;5083156;28;20040;-61
2022/03/29 05:08:57;;;;;;;34.53;18.45;;;;;;;;;;5089622;28;20097;-61
2022/03/29 05:11:23;;;;;;;36.55;19.05;;;;;;;;;;5099557;28;20040;-61
2022/03/29 05:13:50;;;;;;;38.72;20.20;;;;;;;;;;5092647;28;20032;-61
2022/03/29 05:16:16;;;;;;;39.28;20.40;;;;;;;;;;5090267;28;20036;-61
2022/03/29 05:18:43;;;;;;;37.17;20.60;;;;;;;;;;5091757;28;20044;-61
2022/03/29 05:21:10;;;;;;;32.80;19.48;;;;;;;;;;5089229;28;20036;-61
2022/03/29 05:23:36;;;;;;;34.80;20.08;;;;;;;;;;5084703;28;20080;-61
2022/03/29 05:26:02;;;;;;;34.78;19.00;;;;;;;;;;5089283;28;20042;-61
2022/03/29 05:28:28;;;;;;;34.85;18.58;;;;;;;;;;5089632;28;20036;-61
2022/03/29 05:30:54;;;;;;;37.28;20.23;;;;;;;;;;5092979;28;20058;-61
2022/03/29 05:33:20;;;;;;;36.05;20.23;;;;;;;;;;5089892;28;20513;-61
2022/03/29 05:35:46;;;;;;;37.90;19.27;;;;;;;;;;5081028;28;20173;-61
2022/03/29 05:38:12;;;;;;;35.38;19.33;;;;;;;;;;5073526;28;20040;-61
2022/03/29 05:40:38;;;;;;;35.15;19.55;;;;;;;;;;5070217;28;20062;-61
2022/03/29 05:43:08;;;;;;;35.58;18.77;;;;;;;;;;5070321;28;20055;-61
2022/03/29 05:45:35;;;;;;;38.22;20.27;;;;;;;;;;5071167;28;20036;-61
2022/03/29 05:50:45;;;;;;;38.25;19.58;;;;;;;;;;5075343;28;20047;-61
2022/03/29 05:53:11;;;;;;;36.42;20.08;;;;;;;;;;5092838;22;20044;-60
2022/03/29 05:55:37;;;;;;;35.38;19.00;;;;;;;;;;5056558;28;20028;-59
2022/03/29 05:58:03;;;;;;;36.88;19.98;;;;;;;;;;5062780;28;20480;-60
2022/03/29 06:00:31;;;;;;;35.20;18.77;;;;;;;;;;5067604;28;20482;-60
2022/03/29 06:02:57;;;;;;;37.88;19.98;;;;;;;;;;5066487;28;20040;-60
2022/03/29 06:05:24;;;;;;;38.60;20.92;;;;;;;;;;5070250;28;20434;-60
2022/03/29 06:07:50;;;;;;;40.80;21.65;;;;;;;;;;5064672;28;20087;-60
2022/03/29 06:10:16;;;;;;;38.30;20.30;;;;;;;;;;5067595;28;20052;-60
2022/03/29 06:12:45;;;;;;;36.72;20.02;;;;;;;;;;5069544;28;20090;-60
2022/03/29 06:15:11;;;;;;;34.10;19.42;;;;;;;;;;5055175;28;20033;-60
2022/03/29 06:17:38;;;;;;;37.75;20.33;;;;;;;;;;5069543;28;20115;-59
2022/03/29 06:20:06;;;;;;;41.47;21.33;;;;;;;;;;5070451;28;20047;-60
2022/03/29 06:22:32;;;;;;;37.92;21.90;;;;;;;;;;5070620;28;20055;-60
2022/03/29 06:24:58;;;;;;;41.65;21.15;;;;;;;;;;5068833;28;20111;-59
2022/03/29 06:27:25;;;;;;;39.80;20.95;;;;;;;;;;5066188;28;20450;-60
2022/03/29 06:29:52;;;;;;;39.55;20.70;;;;;;;;;;5069219;28;20424;-59
2022/03/29 06:32:19;;;;;;;45.60;21.75;;;;;;;;;;5071171;28;20389;-59
2022/03/29 06:34:45;;;;;;;42.45;21.42;;;;;;;;;;5069817;28;20040;-60
2022/03/29 06:37:12;;;;;;;43.03;21.33;;;;;;;;;;5070656;28;20505;-59
2022/03/29 06:39:38;;;;;;;44.97;22.08;;;;;;;;;;5070084;28;20095;-59
2022/03/29 06:42:04;;;;;;;44.33;21.25;;;;;;;;;;5069700;28;20526;-59
2022/03/29 06:44:33;;;;;;;41.75;21.45;;;;;;;;;;5051052;28;20044;-59
2022/03/29 06:47:00;;;;;;;44.45;21.60;;;;;;;;;;5052647;28;20045;-59
2022/03/29 06:49:26;;;;;;;49.20;22.10;;;;;;;;;;5064502;28;20771;-60
2022/03/29 06:51:52;;;;;;;43.53;22.38;;;;;;;;;;5063493;28;20043;-60
2022/03/29 06:54:18;;;;;;;43.95;22.38;;;;;;;;;;5070310;28;20044;-60
2022/03/29 06:56:44;;;;;;;46.10;23.38;;;;;;;;;;5069180;28;20040;-59
2022/03/29 06:59:10;;;;;;;43.00;22.00;;;;;;;;;;5069866;28;20036;-59
2022/03/29 07:01:36;;;;;;;44.47;22.48;;;;;;;;;;5069659;28;20094;-60
2022/03/29 07:04:03;;;;;;;41.75;21.13;;;;;;;;;;5070429;28;20040;-60
2022/03/29 07:06:32;;;;;;;45.78;22.75;;;;;;;;;;5064587;28;20052;-59
2022/03/29 07:11:45;;;;;;;45.33;22.58;;;;;;;;;;5070310;28;20052;-60
2022/03/29 07:14:12;;;;;;;50.33;22.58;;;;;;;;;;5073952;28;20052;-60
2022/03/29 07:16:39;;;;;;;44.65;23.05;;;;;;;;;;5074091;28;20501;-60
2022/03/29 07:19:08;;;;;;;45.60;21.83;;;;;;;;;;5071031;28;20036;-60
2022/03/29 07:21:34;;;;;;;47.22;22.25;;;;;;;;;;5069703;28;20041;-60
2022/03/29 07:24:01;;;;;;;50.00;22.30;;;;;;;;;;5068024;28;20135;-60
2022/03/29 07:26:30;;;;;;;45.70;23.10;;;;;;;;;;5073131;28;20036;-60
2022/03/29 07:28:56;;;;;;;51.03;24.60;;;;;;;;;;5071424;28;20040;-61
2022/03/29 07:31:22;;;;;;;48.70;23.60;;;;;;;;;;5071328;28;20043;-60
2022/03/29 07:33:48;;;;;;;46.45;23.65;;;;;;;;;;5070907;28;20044;-60
2022/03/29 07:36:14;;;;;;;42.83;22.95;;;;;;;;;;5071574;28;20036;-60
2022/03/29 07:38:40;;;;;;;53.88;26.45;;;;;;;;;;5065169;28;20072;-60
2022/03/29 07:41:06;;;;;;;51.60;26.88;;;;;;;;;;5070764;28;20036;-60
2022/03/29 07:43:32;;;;;;;49.40;25.65;;;;;;;;;;5073425;28;20074;-59
2022/03/29 07:45:59;;;;;;;52.42;25.23;;;;;;;;;;5073497;28;20467;-60
2022/03/29 07:48:25;;;;;;;50.00;25.17;;;;;;;;;;5072648;28;20542;-60
2022/03/29 07:50:51;;;;;;;54.40;26.98;;;;;;;;;;5073133;28;20551;-60
2022/03/29 07:53:17;;;;;;;54.90;27.60;;;;;;;;;;5072615;28;20040;-60
2022/03/29 07:55:43;;;;;;;60.42;28.80;;;;;;;;;;5073721;28;20063;-60
2022/03/29 07:58:09;;;;;;;63.08;29.63;;;;;;;;;;5071274;28;20037;-60
2022/03/29 08:00:36;;;;;;;61.67;29.95;;;;;;;;;;5072936;28;20041;-60
2022/03/29 08:03:06;;;;;;;63.08;30.17;;;;;;;;;;5073637;28;20036;-59
2022/03/29 08:05:33;;;;;;;61.53;29.83;;;;;;;;;;5073482;28;20170;-60
2022/03/29 08:07:59;;;;;;;62.63;29.90;;;;;;;;;;5072840;28;20036;-60
2022/03/29 08:10:27;;;;;;;60.72;29.35;;;;;;;;;;5071466;28;20032;-60
2022/03/29 08:12:54;;;;;;;61.60;29.42;;;;;;;;;;5069341;28;20612;-61
2022/03/29 08:15:20;;;;;;;61.17;29.33;;;;;;;;;;5071377;28;20071;-60
2022/03/29 08:17:48;;;;;;;62.42;29.80;;;;;;;;;;5072694;28;20036;-60
2022/03/29 08:20:14;;;;;;;58.53;28.83;;;;;;;;;;5072921;28;20045;-60
2022/03/29 08:22:44;;;;;;;62.15;28.25;;;;;;;;;;5071604;28;20044;-60
2022/03/29 08:25:11;;;;;;;55.17;27.42;;;;;;;;;;5070033;28;20052;-60
2022/03/29 08:27:37;;;;;;;60.50;28.27;;;;;;;;;;5073142;28;20071;-60
2022/03/29 08:30:04;;;;;;;53.10;26.02;;;;;;;;;;5052100;28;20048;-60
2022/03/29 08:32:32;;;;;;;59.55;28.67;;;;;;;;;;5071714;28;20064;-60
2022/03/29 08:34:58;;;;;;;57.85;26.35;;;;;;;;;;5072079;28;20115;-60
2022/03/29 08:37:24;;;;;;;50.85;26.38;;;;;;;;;;5072296;28;20362;-60
2022/03/29 08:39:50;;;;;;;48.63;25.65;;;;;;;;;;5072370;28;20036;-60
2022/03/29 08:42:20;;;;;;;56.47;25.92;;;;;;;;;;5072677;28;20500;-60
2022/03/29 08:44:46;;;;;;;49.33;26.58;;;;;;;;;;5072367;28;20165;-60
2022/03/29 08:47:15;;;;;;;60.78;27.88;;;;;;;;;;5070860;28;20048;-60
2022/03/29 08:49:41;;;;;;;51.60;26.33;;;;;;;;;;5069582;28;20398;-60
2022/03/29 08:52:08;;;;;;;51.42;26.75;;;;;;;;;;5072230;28;20036;-60
2022/03/29 08:54:34;;;;;;;53.97;26.92;;;;;;;;;;5069081;28;20076;-60
2022/03/29 08:57:00;;;;;;;51.50;25.88;;;;;;;;;;5072615;28;20043;-60
2022/03/29 08:59:27;;;;;;;52.03;25.50;;;;;;;;;;5070304;28;20045;-60
2022/03/29 09:01:53;;;;;;;50.15;26.13;;;;;;;;;;5067737;28;20039;-60
2022/03/29 09:04:23;;;;;;;55.00;25.75;;;;;;;;;;5068000;28;20564;-59
2022/03/29 09:06:54;;;;;;;51.17;25.05;;;;;;;;;;5068372;28;20116;-60
2022/03/29 09:09:24;;;;;;;53.65;25.92;;;;;;;;;;5069401;28;20049;-60
2022/03/29 09:11:53;;;;;;;52.60;25.65;;;;;;;;;;5066576;28;20115;-59
2022/03/29 09:14:19;;;;;;;47.47;25.55;;;;;;;;;;5066382;28;20036;-60
2022/03/29 09:16:45;;;;;;;50.80;24.98;;;;;;;;;;5071378;28;20039;-59
2022/03/29 09:19:11;;;;;;;51.40;24.77;;;;;;;;;;5069170;28;20078;-60
2022/03/29 09:21:44;;;;;;;50.20;25.08;;;;;;;;;;5071330;28;20033;-60
2022/03/29 09:24:14;;;;;;;51.00;26.60;;;;;;;;;;5071962;28;20083;-60
2022/03/29 09:26:43;;;;;;;49.22;26.05;;;;;;;;;;5065393;28;20119;-59
2022/03/29 09:29:13;;;;;;;46.53;24.23;;;;;;;;;;5064862;28;20119;-60
2022/03/29 09:31:39;;;;;;;54.05;24.88;;;;;;;;;;5066906;28;20447;-60
2022/03/29 09:34:18;;;;;;;52.65;25.42;;;;;;;;;;5067247;28;20043;-59
2022/03/29 09:36:51;;;;;;;50.17;25.75;;;;;;;;;;5072098;28;20079;-60
2022/03/29 09:39:31;;;;;;;48.50;24.25;;;;;;;;;;5070328;28;20474;-60
2022/03/29 09:41:58;;;;;;;47.58;24.73;;;;;;;;;;5070536;28;20079;-60
2022/03/29 09:44:32;;;;;;;57.30;25.67;;;;;;;;;;5058742;28;20045;-60
2022/03/29 09:47:00;;;;;;;48.40;24.77;;;;;;;;;;5063745;28;20071;-59
2022/03/29 09:49:27;;;;;;;55.85;24.85;;;;;;;;;;5064271;28;20062;-61
2022/03/29 09:52:15;;;;;;;49.45;25.13;;;;;;;;;;5063841;28;20381;-60
2022/03/29 09:54:43;;;;;;;47.08;25.40;;;;;;;;;;5068937;28;20042;-60
2022/03/29 09:57:09;;;;;;;48.00;23.77;;;;;;;;;;5069918;28;20048;-60
2022/03/29 09:59:47;;;;;;;47.50;24.42;;;;;;;;;;5070492;28;20059;-60
2022/03/29 10:02:13;;;;;;;47.35;25.05;;;;;;;;;;5070853;28;20064;-59
2022/03/29 10:04:40;;;;;;;51.45;24.48;;;;;;;;;;5069239;28;20041;-59
2022/03/29 10:07:09;;;;;;;48.95;25.58;;;;;;;;;;5069525;28;20036;-60
2022/03/29 10:09:38;;;;;;;47.83;26.00;;;;;;;;;;5071090;28;20452;-60
2022/03/29 10:12:08;;;;;;;49.67;25.38;;;;;;;;;;5066996;28;20048;-60
2022/03/29 10:14:36;;;;;;;47.88;26.50;;;;;;;;;;5069138;28;20068;-60
2022/03/29 10:17:03;;;;;;;48.80;25.77;;;;;;;;;;5070730;28;20033;-59
2022/03/29 10:19:30;;;;;;;50.42;26.13;;;;;;;;;;5070949;28;20031;-59
2022/03/29 10:21:58;;;;;;;47.72;26.15;;;;;;;;;;5068208;28;20061;-59
2022/03/29 10:24:25;;;;;;;44.65;24.08;;;;;;;;;;5069842;28;20043;-60
2022/03/29 10:26:52;;;;;;;43.72;24.10;;;;;;;;;;5071141;28;20398;-60
2022/03/29 10:29:18;;;;;;;43.05;23.17;;;;;;;;;;5069767;28;20097;-59
2022/03/29 10:31:50;;;;;;;42.10;21.83;;;;;;;;;;5070573;28;20251;-59
2022/03/29 10:34:19;;;;;;;43.97;22.08;;;;;;;;;;5062155;28;20466;-59
2022/03/29 10:37:04;;;;;;;36.55;20.23;;;;;;;;;;5067357;28;20033;-59
2022/03/29 10:39:42;;;;;;;39.47;20.45;;;;;;;;;;5065861;28;20107;-59
2022/03/29 10:42:23;;;;;;;34.58;18.27;;;;;;;;;;5071103;28;20029;-60
2022/03/29 10:44:49;;;;;;;;;;;;;;;;;;5070296;28;20486;-60
2022/03/29 10:47:26;;;;;;;39.83;20.42;;;;;;;;;;5070682;28;19964;-60
2022/03/29 10:49:52;;;;;;;39.15;19.98;;;;;;;;;;5071338;28;20434;-60
2022/03/29 10:52:21;;;;;;;37.15;19.63;;;;;;;;;;5073449;28;20079;-59
2022/03/29 10:54:47;;;;;;;39.40;20.55;;;;;;;;;;5073675;28;20123;-59
2022/03/29 10:57:26;;;;;;;37.65;19.73;;;;;;;;;;5070543;28;20523;-59
2022/03/29 10:59:58;;;;;;;43.22;20.77;;;;;;;;;;5070638;28;20402;-59
2022/03/29 11:02:25;;;;;;;41.42;20.05;;;;;;;;;;5072557;28;21385;-60
2022/03/29 11:05:06;;;;;;;43.25;20.63;;;;;;;;;;5068642;28;20044;-59
2022/03/29 11:07:34;;;;;;;38.20;19.58;;;;;;;;;;5072926;28;20037;-60
2022/03/29 11:10:13;;;;;;;40.20;19.75;;;;;;;;;;5073066;28;20090;-60
2022/03/29 11:12:53;;;;;;;38.33;19.98;;;;;;;;;;5069829;28;20120;-60
2022/03/29 11:15:25;;;;;;;36.58;19.65;;;;;;;;;;5069314;28;20036;-60
2022/03/29 11:17:57;;;;;;;35.35;17.65;;;;;;;;;;5071814;28;20551;-60
2022/03/29 11:20:29;;;;;;;40.72;19.17;;;;;;;;;;5073630;28;20452;-59
2022/03/29 11:23:06;;;;;;;39.67;19.20;;;;;;;;;;5073637;28;20398;-60
2022/03/29 11:25:42;;;;;;;33.25;18.60;;;;;;;;;;5071153;28;20037;-60
2022/03/29 11:28:09;;;;;;;36.15;19.33;;;;;;;;;;5073936;28;20102;-60
2022/03/29 11:30:35;;;;;;;35.72;18.98;;;;;;;;;;5070435;28;20116;-60
2022/03/29 11:33:02;;;;;;;31.20;16.58;;;;;;;;;;5072751;28;20048;-60
2022/03/29 11:35:28;;;;;;;29.27;17.77;;;;;;;;;;5070519;28;20051;-59
2022/03/29 11:37:55;;;;;;;35.85;17.92;;;;;;;;;;5070352;28;20068;-60
2022/03/29 11:40:21;;;;;;;33.17;17.90;;;;;;;;;;5071355;28;20037;-60
2022/03/29 11:42:53;;;;;;;34.55;17.63;;;;;;;;;;5072869;28;20489;-60
2022/03/29 11:45:23;;;;;;;39.03;18.83;;;;;;;;;;5072874;28;20128;-60
2022/03/29 11:47:53;;;;;;;32.67;18.52;;;;;;;;;;5071325;28;20064;-60
2022/03/29 11:50:33;;;;;;;37.25;18.85;;;;;;;;;;5073105;28;20040;-60
2022/03/29 11:52:59;;;;;;;35.03;17.83;;;;;;;;;;5090178;22;20051;-62
2022/03/29 11:55:26;;;;;;;34.30;18.15;;;;;;;;;;5093213;28;20972;-62
2022/03/29 11:57:52;;;;;;;28.42;17.75;;;;;;;;;;5091439;28;20503;-62
2022/03/29 12:00:23;;;;;;;36.35;19.15;;;;;;;;;;5093230;28;20112;-62
2022/03/29 12:02:49;;;;;;;31.57;18.30;;;;;;;;;;5098641;28;20039;-62
2022/03/29 12:05:22;;;;;;;38.25;19.05;;;;;;;;;;5106082;28;20044;-62
2022/03/29 12:07:48;;;;;;;35.35;17.92;;;;;;;;;;5097362;28;20097;-62
2022/03/29 12:10:25;;;;;;;34.85;19.27;;;;;;;;;;5094748;28;20036;-61
2022/03/29 12:12:51;;;;;;;30.27;17.83;;;;;;;;;;5105183;28;20039;-61
2022/03/29 12:15:21;;;;;;;33.17;17.15;;;;;;;;;;5103154;28;20122;-62
2022/03/29 12:18:40;;;;;;;32.00;19.02;;;;;;;;;;5093392;28;20067;-62
2022/03/29 12:20:40;;;;;;;33.03;17.58;;;;;;;;;;5087206;28;20062;-62
2022/03/29 12:23:18;;;;;;;33.58;16.75;;;;;;;;;;5090564;28;20047;-61
2022/03/29 12:25:45;;;;;;;32.80;18.00;;;;;;;;;;5091850;28;20036;-62
2022/03/29 12:28:13;;;;;;;29.70;18.25;;;;;;;;;;5093063;28;20044;-62
2022/03/29 12:30:39;;;;;;;35.78;18.42;;;;;;;;;;5090766;28;20692;-62
2022/03/29 12:33:05;;;;;;;34.92;18.45;;;;;;;;;;5091801;28;20047;-62
2022/03/29 12:35:33;;;;;;;29.88;17.58;;;;;;;;;;5092725;28;20040;-62
2022/03/29 12:38:06;;;;;;;32.55;17.77;;;;;;;;;;5090215;28;20055;-62
2022/03/29 12:40:32;;;;;;;35.38;18.17;;;;;;;;;;5092188;28;20036;-62
2022/03/29 12:43:04;;;;;;;31.17;17.92;;;;;;;;;;5091741;28;20047;-62
2022/03/29 12:45:30;;;;;;;34.30;18.02;;;;;;;;;;5093140;28;20459;-62
2022/03/29 12:47:58;;;;;;;35.45;17.92;;;;;;;;;;5083839;28;20123;-62
2022/03/29 12:50:25;;;;;;;31.45;16.30;;;;;;;;;;5092260;28;20100;-62
2022/03/29 12:52:51;;;;;;;32.42;17.35;;;;;;;;;;5092909;28;20063;-62
2022/03/29 12:55:18;;;;;;;36.30;18.27;;;;;;;;;;5092143;28;20529;-62
2022/03/29 12:57:45;;;;;;;33.97;17.90;;;;;;;;;;5092645;28;20049;-62
2022/03/29 13:00:16;;;;;;;29.55;16.98;;;;;;;;;;5092639;28;20032;-62
2022/03/29 13:02:43;;;;;;;29.13;15.88;;;;;;;;;;5092050;28;20048;-61
2022/03/29 13:05:10;;;;;;;32.83;16.95;;;;;;;;;;5091912;28;20115;-62
2022/03/29 13:07:45;;;;;;;36.28;18.02;;;;;;;;;;5093207;28;20122;-62
2022/03/29 13:10:16;;;;;;;33.83;16.92;;;;;;;;;;5103696;28;20514;-62
2022/03/29 13:12:51;;;;;;;33.10;17.17;;;;;;;;;;5110879;28;20527;-62
2022/03/29 13:15:46;;;;;;;35.60;17.00;;;;;;;;;;5108764;28;20146;-62
2022/03/29 13:18:25;;;;;;;27.17;14.52;;;;;;;;;;4998953;28;20042;-62
2022/03/29 13:20:52;;;;;;;33.05;16.15;;;;;;;;;;5097253;28;20039;-62
2022/03/29 13:23:31;;;;;;;33.55;16.25;;;;;;;;;;5099316;28;20066;-62
2022/03/29 13:25:57;;;;;;;29.83;15.60;;;;;;;;;;5091911;28;20044;-62
2022/03/29 13:28:24;;;;;;;29.60;15.85;;;;;;;;;;5091604;28;20097;-62
2022/03/29 13:30:50;;;;;;;33.50;15.15;;;;;;;;;;5112077;28;20036;-62
2022/03/29 13:33:16;;;;;;;29.58;15.43;;;;;;;;;;5108161;28;20490;-62
2022/03/29 13:35:43;;;;;;;32.38;16.45;;;;;;;;;;5092446;28;20032;-61
2022/03/29 13:38:09;;;;;;;33.65;16.23;;;;;;;;;;5091431;28;20477;-62
2022/03/29 13:40:35;;;;;;;28.80;14.32;;;;;;;;;;5100255;28;20035;-61
2022/03/29 13:43:01;;;;;;;30.15;14.48;;;;;;;;;;5094986;28;20051;-61
2022/03/29 13:45:27;;;;;;;28.33;14.63;;;;;;;;;;5104109;28;20394;-61
2022/03/29 13:47:55;;;;;;;35.88;15.35;;;;;;;;;;5100390;28;20066;-62
2022/03/29 13:50:21;;;;;;;29.58;14.05;;;;;;;;;;5095418;28;20137;-62
2022/03/29 13:52:48;;;;;;;27.58;14.70;;;;;;;;;;5101243;28;20413;-62
2022/03/29 13:55:14;;;;;;;29.13;14.63;;;;;;;;;;5101084;28;20044;-61
2022/03/29 13:57:40;;;;;;;28.65;14.88;;;;;;;;;;5099872;28;20374;-62
2022/03/29 14:00:08;;;;;;;28.38;14.15;;;;;;;;;;5092197;28;20036;-61
2022/03/29 14:02:34;;;;;;;29.63;13.80;;;;;;;;;;5093094;28;20051;-62
2022/03/29 14:05:00;;;;;;;24.50;12.45;;;;;;;;;;5093760;28;20115;-62
2022/03/29 14:07:27;;;;;;;29.60;13.77;;;;;;;;;;5092522;28;20460;-62
2022/03/29 14:09:53;;;;;;;31.75;12.88;;;;;;;;;;5091943;28;20051;-62
2022/03/29 14:12:19;;;;;;;23.92;12.20;;;;;;;;;;5091986;28;20040;-62
2022/03/29 14:14:45;;;;;;;30.35;12.75;;;;;;;;;;5105818;28;20039;-62
2022/03/29 14:17:11;;;;;;;28.35;13.10;;;;;;;;;;5091247;28;20454;-62
2022/03/29 14:19:37;;;;;;;24.92;12.05;;;;;;;;;;5084049;28;20109;-61
2022/03/29 14:22:03;;;;;;;25.98;12.38;;;;;;;;;;5092169;28;20028;-61
2022/03/29 14:24:29;;;;;;;23.92;11.18;;;;;;;;;;5090246;28;20358;-61
2022/03/29 14:26:56;;;;;;;27.27;12.73;;;;;;;;;;5092389;28;20035;-62
2022/03/29 14:29:22;;;;;;;28.10;11.82;;;;;;;;;;5089535;28;20043;-61